sensor_id;sensor_type;location;lat;lon;timestamp;P1;durP1;ratioP1;P2;durP2;ratioP2
5831;SDS011;50943;51.448;7.646;2023-08-30T00:00:58;11.50;;;5.90;;
5831;SDS011;50943;51.448;7.646;2023-08-30T00:03:25;9.87;;;5.83;;
5831;SDS011;50943;51.448;7.646;2023-08-30T00:05:51;9.23;;;6.90;;
5831;SDS011;50943;51.448;7.646;2023-08-30T00:08:18;10.87;;;7.80;;
5831;SDS011;50943;51.448;7.646;2023-08-30T00:10:44;10.90;;;7.90;;
5831;SDS011;50943;51.448;7.646;2023-08-30T00:13:12;13.10;;;8.27;;
5831;SDS011;50943;51.448;7.646;2023-08-30T00:15:39;10.10;;;7.47;;
5831;SDS011;50943;51.448;7.646;2023-08-30T00:18:05;17.43;;;7.60;;
5831;SDS011;50943;51.448;7.646;2023-08-30T00:20:32;13.67;;;6.70;;
5831;SDS011;50943;51.448;7.646;2023-08-30T00:22:59;7.70;;;6.50;;
5831;SDS011;50943;51.448;7.646;2023-08-30T00:25:25;9.20;;;6.23;;
5831;SDS011;50943;51.448;7.646;2023-08-30T00:27:51;9.27;;;7.03;;
5831;SDS011;50943;51.448;7.646;2023-08-30T00:30:19;10.00;;;7.43;;
5831;SDS011;50943;51.448;7.646;2023-08-30T00:32:46;10.47;;;7.47;;
5831;SDS011;50943;51.448;7.646;2023-08-30T00:35:12;11.00;;;7.53;;
5831;SDS011;50943;51.448;7.646;2023-08-30T00:37:38;9.60;;;7.80;;
5831;SDS011;50943;51.448;7.646;2023-08-30T00:40:05;12.97;;;7.63;;
5831;SDS011;50943;51.448;7.646;2023-08-30T00:42:32;9.77;;;7.47;;
5831;SDS011;50943;51.448;7.646;2023-08-30T00:44:58;9.50;;;7.40;;
5831;SDS011;50943;51.448;7.646;2023-08-30T00:47:26;10.50;;;7.90;;
5831;SDS011;50943;51.448;7.646;2023-08-30T00:49:53;11.73;;;7.90;;
5831;SDS011;50943;51.448;7.646;2023-08-30T00:52:19;18.83;;;8.00;;
5831;SDS011;50943;51.448;7.646;2023-08-30T00:54:45;12.03;;;8.53;;
5831;SDS011;50943;51.448;7.646;2023-08-30T00:57:12;14.73;;;8.77;;
5831;SDS011;50943;51.448;7.646;2023-08-30T00:59:39;17.07;;;8.90;;
5831;SDS011;50943;51.448;7.646;2023-08-30T01:02:06;12.10;;;7.40;;
5831;SDS011;50943;51.448;7.646;2023-08-30T01:04:34;10.17;;;8.20;;
5831;SDS011;50943;51.448;7.646;2023-08-30T01:07:00;12.03;;;8.63;;
5831;SDS011;50943;51.448;7.646;2023-08-30T01:09:27;12.90;;;9.10;;
5831;SDS011;50943;51.448;7.646;2023-08-30T01:11:54;11.00;;;7.77;;
5831;SDS011;50943;51.448;7.646;2023-08-30T01:14:25;12.80;;;8.87;;
5831;SDS011;50943;51.448;7.646;2023-08-30T01:16:51;12.37;;;8.50;;
5831;SDS011;50943;51.448;7.646;2023-08-30T01:19:24;11.07;;;8.40;;
5831;SDS011;50943;51.448;7.646;2023-08-30T01:21:55;13.00;;;8.30;;
5831;SDS011;50943;51.448;7.646;2023-08-30T01:24:23;11.30;;;8.60;;
5831;SDS011;50943;51.448;7.646;2023-08-30T01:27:00;14.73;;;8.60;;
5831;SDS011;50943;51.448;7.646;2023-08-30T01:29:27;10.37;;;7.73;;
5831;SDS011;50943;51.448;7.646;2023-08-30T01:31:55;9.27;;;7.10;;
5831;SDS011;50943;51.448;7.646;2023-08-30T01:34:22;10.30;;;8.03;;
5831;SDS011;50943;51.448;7.646;2023-08-30T01:36:49;12.90;;;9.17;;
5831;SDS011;50943;51.448;7.646;2023-08-30T01:39:15;13.13;;;9.50;;
5831;SDS011;50943;51.448;7.646;2023-08-30T01:41:42;15.20;;;10.47;;
5831;SDS011;50943;51.448;7.646;2023-08-30T01:44:10;13.80;;;10.70;;
5831;SDS011;50943;51.448;7.646;2023-08-30T01:46:40;14.80;;;9.60;;
5831;SDS011;50943;51.448;7.646;2023-08-30T01:49:06;14.60;;;9.70;;
5831;SDS011;50943;51.448;7.646;2023-08-30T01:51:33;13.73;;;9.87;;
5831;SDS011;50943;51.448;7.646;2023-08-30T01:54:00;17.00;;;9.63;;
5831;SDS011;50943;51.448;7.646;2023-08-30T01:56:27;12.10;;;9.40;;
5831;SDS011;50943;51.448;7.646;2023-08-30T01:58:54;13.73;;;9.50;;
5831;SDS011;50943;51.448;7.646;2023-08-30T02:01:22;16.70;;;9.57;;
5831;SDS011;50943;51.448;7.646;2023-08-30T02:03:49;14.63;;;9.80;;
5831;SDS011;50943;51.448;7.646;2023-08-30T02:06:17;15.83;;;11.00;;
5831;SDS011;50943;51.448;7.646;2023-08-30T02:08:49;16.63;;;11.30;;
5831;SDS011;50943;51.448;7.646;2023-08-30T02:11:19;13.70;;;11.00;;
5831;SDS011;50943;51.448;7.646;2023-08-30T02:13:47;18.97;;;10.50;;
5831;SDS011;50943;51.448;7.646;2023-08-30T02:16:14;19.07;;;11.73;;
5831;SDS011;50943;51.448;7.646;2023-08-30T02:18:45;16.97;;;11.30;;
5831;SDS011;50943;51.448;7.646;2023-08-30T02:21:11;22.57;;;12.17;;
5831;SDS011;50943;51.448;7.646;2023-08-30T02:23:38;20.50;;;11.77;;
5831;SDS011;50943;51.448;7.646;2023-08-30T02:26:04;17.30;;;13.30;;
5831;SDS011;50943;51.448;7.646;2023-08-30T02:28:30;17.37;;;12.57;;
5831;SDS011;50943;51.448;7.646;2023-08-30T02:30:58;16.13;;;11.37;;
5831;SDS011;50943;51.448;7.646;2023-08-30T02:33:24;19.50;;;13.10;;
5831;SDS011;50943;51.448;7.646;2023-08-30T02:35:52;19.00;;;12.80;;
5831;SDS011;50943;51.448;7.646;2023-08-30T02:38:19;19.40;;;12.47;;
5831;SDS011;50943;51.448;7.646;2023-08-30T02:40:46;17.97;;;12.37;;
5831;SDS011;50943;51.448;7.646;2023-08-30T02:43:12;20.13;;;11.30;;
5831;SDS011;50943;51.448;7.646;2023-08-30T02:45:39;19.23;;;10.47;;
5831;SDS011;50943;51.448;7.646;2023-08-30T02:48:06;16.80;;;11.30;;
5831;SDS011;50943;51.448;7.646;2023-08-30T02:50:32;18.03;;;12.20;;
5831;SDS011;50943;51.448;7.646;2023-08-30T02:53:00;17.67;;;12.07;;
5831;SDS011;50943;51.448;7.646;2023-08-30T02:55:26;19.93;;;13.00;;
5831;SDS011;50943;51.448;7.646;2023-08-30T02:57:53;20.00;;;13.37;;
5831;SDS011;50943;51.448;7.646;2023-08-30T03:00:19;19.10;;;12.67;;
5831;SDS011;50943;51.448;7.646;2023-08-30T03:02:45;23.23;;;11.40;;
5831;SDS011;50943;51.448;7.646;2023-08-30T03:05:12;16.27;;;11.30;;
5831;SDS011;50943;51.448;7.646;2023-08-30T03:07:38;18.77;;;12.47;;
5831;SDS011;50943;51.448;7.646;2023-08-30T03:10:06;16.77;;;10.47;;
5831;SDS011;50943;51.448;7.646;2023-08-30T03:12:33;12.93;;;10.07;;
5831;SDS011;50943;51.448;7.646;2023-08-30T03:14:59;13.40;;;10.00;;
5831;SDS011;50943;51.448;7.646;2023-08-30T03:17:26;16.77;;;11.93;;
5831;SDS011;50943;51.448;7.646;2023-08-30T03:19:52;15.53;;;10.70;;
5831;SDS011;50943;51.448;7.646;2023-08-30T03:22:19;16.60;;;10.47;;
5831;SDS011;50943;51.448;7.646;2023-08-30T03:24:45;12.97;;;10.40;;
5831;SDS011;50943;51.448;7.646;2023-08-30T03:27:13;14.80;;;10.60;;
5831;SDS011;50943;51.448;7.646;2023-08-30T03:29:39;11.90;;;9.07;;
5831;SDS011;50943;51.448;7.646;2023-08-30T03:32:06;10.90;;;8.80;;
5831;SDS011;50943;51.448;7.646;2023-08-30T03:34:32;11.97;;;9.00;;
5831;SDS011;50943;51.448;7.646;2023-08-30T03:36:59;9.50;;;7.93;;
5831;SDS011;50943;51.448;7.646;2023-08-30T03:39:25;11.73;;;8.20;;
5831;SDS011;50943;51.448;7.646;2023-08-30T03:41:51;9.70;;;7.87;;
5831;SDS011;50943;51.448;7.646;2023-08-30T03:44:19;14.00;;;7.50;;
5831;SDS011;50943;51.448;7.646;2023-08-30T03:46:46;8.87;;;6.67;;
5831;SDS011;50943;51.448;7.646;2023-08-30T03:49:12;9.57;;;7.60;;
5831;SDS011;50943;51.448;7.646;2023-08-30T03:51:39;7.33;;;6.47;;
5831;SDS011;50943;51.448;7.646;2023-08-30T03:54:05;7.80;;;6.40;;
5831;SDS011;50943;51.448;7.646;2023-08-30T03:56:33;9.07;;;7.40;;
5831;SDS011;50943;51.448;7.646;2023-08-30T03:58:59;10.23;;;8.07;;
5831;SDS011;50943;51.448;7.646;2023-08-30T04:01:27;11.57;;;9.23;;
5831;SDS011;50943;51.448;7.646;2023-08-30T04:03:54;28.73;;;9.90;;
5831;SDS011;50943;51.448;7.646;2023-08-30T04:06:20;11.80;;;8.40;;
5831;SDS011;50943;51.448;7.646;2023-08-30T04:08:47;13.07;;;8.67;;
5831;SDS011;50943;51.448;7.646;2023-08-30T04:11:14;11.30;;;8.87;;
5831;SDS011;50943;51.448;7.646;2023-08-30T04:13:40;13.97;;;10.10;;
5831;SDS011;50943;51.448;7.646;2023-08-30T04:16:07;12.57;;;9.20;;
5831;SDS011;50943;51.448;7.646;2023-08-30T04:18:34;16.47;;;12.63;;
5831;SDS011;50943;51.448;7.646;2023-08-30T04:21:01;15.07;;;10.50;;
5831;SDS011;50943;51.448;7.646;2023-08-30T04:23:27;18.60;;;11.10;;
5831;SDS011;50943;51.448;7.646;2023-08-30T04:25:54;15.30;;;11.10;;
5831;SDS011;50943;51.448;7.646;2023-08-30T04:28:20;14.37;;;11.53;;
5831;SDS011;50943;51.448;7.646;2023-08-30T04:30:47;17.83;;;11.97;;
5831;SDS011;50943;51.448;7.646;2023-08-30T04:33:13;22.40;;;12.80;;
5831;SDS011;50943;51.448;7.646;2023-08-30T04:35:41;21.90;;;13.40;;
5831;SDS011;50943;51.448;7.646;2023-08-30T04:38:07;18.90;;;13.73;;
5831;SDS011;50943;51.448;7.646;2023-08-30T04:40:34;22.80;;;14.77;;
5831;SDS011;50943;51.448;7.646;2023-08-30T04:43:00;29.03;;;14.87;;
5831;SDS011;50943;51.448;7.646;2023-08-30T04:45:27;24.03;;;13.87;;
5831;SDS011;50943;51.448;7.646;2023-08-30T04:47:54;31.10;;;17.47;;
5831;SDS011;50943;51.448;7.646;2023-08-30T04:50:21;22.50;;;16.00;;
5831;SDS011;50943;51.448;7.646;2023-08-30T04:52:48;29.00;;;17.17;;
5831;SDS011;50943;51.448;7.646;2023-08-30T04:55:15;27.53;;;17.20;;
5831;SDS011;50943;51.448;7.646;2023-08-30T04:57:41;28.57;;;16.90;;
5831;SDS011;50943;51.448;7.646;2023-08-30T05:00:10;33.43;;;19.67;;
5831;SDS011;50943;51.448;7.646;2023-08-30T05:02:36;26.23;;;17.43;;
5831;SDS011;50943;51.448;7.646;2023-08-30T05:05:03;19.43;;;12.57;;
5831;SDS011;50943;51.448;7.646;2023-08-30T05:07:29;19.13;;;11.47;;
5831;SDS011;50943;51.448;7.646;2023-08-30T05:09:57;15.53;;;11.57;;
5831;SDS011;50943;51.448;7.646;2023-08-30T05:12:24;15.07;;;10.27;;
5831;SDS011;50943;51.448;7.646;2023-08-30T05:14:50;15.63;;;11.40;;
5831;SDS011;50943;51.448;7.646;2023-08-30T05:17:16;18.23;;;11.17;;
5831;SDS011;50943;51.448;7.646;2023-08-30T05:19:43;15.37;;;11.33;;
5831;SDS011;50943;51.448;7.646;2023-08-30T05:22:09;16.40;;;11.43;;
5831;SDS011;50943;51.448;7.646;2023-08-30T05:24:36;19.80;;;12.20;;
5831;SDS011;50943;51.448;7.646;2023-08-30T05:27:04;18.13;;;12.00;;
5831;SDS011;50943;51.448;7.646;2023-08-30T05:29:31;17.20;;;12.13;;
5831;SDS011;50943;51.448;7.646;2023-08-30T05:31:57;15.10;;;10.30;;
5831;SDS011;50943;51.448;7.646;2023-08-30T05:34:23;15.57;;;9.90;;
5831;SDS011;50943;51.448;7.646;2023-08-30T05:36:52;17.13;;;8.73;;
5831;SDS011;50943;51.448;7.646;2023-08-30T05:39:18;11.13;;;8.50;;
5831;SDS011;50943;51.448;7.646;2023-08-30T05:41:45;12.20;;;9.30;;
5831;SDS011;50943;51.448;7.646;2023-08-30T05:44:12;13.53;;;9.37;;
5831;SDS011;50943;51.448;7.646;2023-08-30T05:46:39;17.60;;;11.80;;
5831;SDS011;50943;51.448;7.646;2023-08-30T05:49:05;25.77;;;15.37;;
5831;SDS011;50943;51.448;7.646;2023-08-30T05:51:32;26.20;;;16.20;;
5831;SDS011;50943;51.448;7.646;2023-08-30T05:53:58;26.70;;;15.70;;
5831;SDS011;50943;51.448;7.646;2023-08-30T05:56:25;26.90;;;17.17;;
5831;SDS011;50943;51.448;7.646;2023-08-30T05:58:51;35.70;;;19.33;;
5831;SDS011;50943;51.448;7.646;2023-08-30T06:01:19;30.63;;;19.70;;
5831;SDS011;50943;51.448;7.646;2023-08-30T06:03:45;26.57;;;18.93;;
5831;SDS011;50943;51.448;7.646;2023-08-30T06:06:12;16.93;;;11.80;;
5831;SDS011;50943;51.448;7.646;2023-08-30T06:08:38;15.37;;;10.00;;
5831;SDS011;50943;51.448;7.646;2023-08-30T06:11:04;15.07;;;9.77;;
5831;SDS011;50943;51.448;7.646;2023-08-30T06:13:31;18.80;;;11.10;;
5831;SDS011;50943;51.448;7.646;2023-08-30T06:15:57;14.50;;;9.30;;
5831;SDS011;50943;51.448;7.646;2023-08-30T06:18:26;12.23;;;9.17;;
5831;SDS011;50943;51.448;7.646;2023-08-30T06:20:52;15.57;;;8.80;;
5831;SDS011;50943;51.448;7.646;2023-08-30T06:23:18;10.63;;;8.70;;
5831;SDS011;50943;51.448;7.646;2023-08-30T06:25:52;17.90;;;9.43;;
5831;SDS011;50943;51.448;7.646;2023-08-30T06:28:18;14.97;;;8.77;;
5831;SDS011;50943;51.448;7.646;2023-08-30T06:30:45;14.30;;;9.60;;
5831;SDS011;50943;51.448;7.646;2023-08-30T06:33:14;16.43;;;9.97;;
5831;SDS011;50943;51.448;7.646;2023-08-30T06:35:42;10.37;;;8.00;;
5831;SDS011;50943;51.448;7.646;2023-08-30T06:38:08;17.13;;;9.30;;
5831;SDS011;50943;51.448;7.646;2023-08-30T06:40:35;10.53;;;8.00;;
5831;SDS011;50943;51.448;7.646;2023-08-30T06:43:02;14.17;;;9.93;;
5831;SDS011;50943;51.448;7.646;2023-08-30T06:45:28;19.40;;;12.47;;
5831;SDS011;50943;51.448;7.646;2023-08-30T06:47:55;22.47;;;14.27;;
5831;SDS011;50943;51.448;7.646;2023-08-30T06:50:21;22.13;;;15.53;;
5831;SDS011;50943;51.448;7.646;2023-08-30T06:52:49;31.97;;;16.87;;
5831;SDS011;50943;51.448;7.646;2023-08-30T06:55:15;25.93;;;17.40;;
5831;SDS011;50943;51.448;7.646;2023-08-30T06:57:41;24.00;;;16.30;;
5831;SDS011;50943;51.448;7.646;2023-08-30T07:00:08;22.40;;;15.97;;
5831;SDS011;50943;51.448;7.646;2023-08-30T07:02:36;32.93;;;22.47;;
5831;SDS011;50943;51.448;7.646;2023-08-30T07:05:03;33.67;;;19.40;;
5831;SDS011;50943;51.448;7.646;2023-08-30T07:07:30;31.93;;;21.03;;
5831;SDS011;50943;51.448;7.646;2023-08-30T07:09:58;18.57;;;12.60;;
5831;SDS011;50943;51.448;7.646;2023-08-30T07:12:25;13.00;;;10.20;;
5831;SDS011;50943;51.448;7.646;2023-08-30T07:14:51;12.93;;;8.50;;
5831;SDS011;50943;51.448;7.646;2023-08-30T07:17:18;11.47;;;9.50;;
5831;SDS011;50943;51.448;7.646;2023-08-30T07:19:44;13.17;;;9.90;;
5831;SDS011;50943;51.448;7.646;2023-08-30T07:22:11;12.63;;;9.40;;
5831;SDS011;50943;51.448;7.646;2023-08-30T07:24:37;12.33;;;10.70;;
5831;SDS011;50943;51.448;7.646;2023-08-30T07:27:05;12.60;;;10.50;;
5831;SDS011;50943;51.448;7.646;2023-08-30T07:29:32;13.80;;;10.90;;
5831;SDS011;50943;51.448;7.646;2023-08-30T07:31:59;15.57;;;10.87;;
5831;SDS011;50943;51.448;7.646;2023-08-30T07:34:43;12.00;;;10.47;;
5831;SDS011;50943;51.448;7.646;2023-08-30T07:37:30;10.63;;;9.50;;
5831;SDS011;50943;51.448;7.646;2023-08-30T07:39:56;15.17;;;11.40;;
5831;SDS011;50943;51.448;7.646;2023-08-30T07:42:24;17.43;;;13.50;;
5831;SDS011;50943;51.448;7.646;2023-08-30T07:44:51;16.93;;;14.20;;
5831;SDS011;50943;51.448;7.646;2023-08-30T07:47:17;17.07;;;14.80;;
5831;SDS011;50943;51.448;7.646;2023-08-30T07:50:04;17.90;;;13.13;;
5831;SDS011;50943;51.448;7.646;2023-08-30T07:52:51;22.60;;;14.50;;
5831;SDS011;50943;51.448;7.646;2023-08-30T07:55:32;18.40;;;15.50;;
5831;SDS011;50943;51.448;7.646;2023-08-30T07:57:59;22.20;;;15.60;;
5831;SDS011;50943;51.448;7.646;2023-08-30T08:00:26;17.17;;;13.27;;
5831;SDS011;50943;51.448;7.646;2023-08-30T08:02:52;17.43;;;13.07;;
5831;SDS011;50943;51.448;7.646;2023-08-30T08:05:18;16.33;;;13.20;;
5831;SDS011;50943;51.448;7.646;2023-08-30T08:07:45;18.97;;;13.67;;
5831;SDS011;50943;51.448;7.646;2023-08-30T08:10:11;22.10;;;12.90;;
5831;SDS011;50943;51.448;7.646;2023-08-30T08:12:38;15.43;;;11.80;;
5831;SDS011;50943;51.448;7.646;2023-08-30T08:15:06;14.43;;;11.70;;
5831;SDS011;50943;51.448;7.646;2023-08-30T08:17:32;13.33;;;10.93;;
5831;SDS011;50943;51.448;7.646;2023-08-30T08:19:59;13.67;;;10.30;;
5831;SDS011;50943;51.448;7.646;2023-08-30T08:22:25;14.03;;;10.07;;
5831;SDS011;50943;51.448;7.646;2023-08-30T08:24:51;14.17;;;9.93;;
5831;SDS011;50943;51.448;7.646;2023-08-30T08:27:18;10.60;;;9.37;;
5831;SDS011;50943;51.448;7.646;2023-08-30T08:29:45;12.83;;;8.60;;
5831;SDS011;50943;51.448;7.646;2023-08-30T08:32:13;11.50;;;9.40;;
5831;SDS011;50943;51.448;7.646;2023-08-30T08:34:39;10.37;;;8.30;;
5831;SDS011;50943;51.448;7.646;2023-08-30T08:37:06;16.40;;;7.97;;
5831;SDS011;50943;51.448;7.646;2023-08-30T08:39:32;11.77;;;8.00;;
5831;SDS011;50943;51.448;7.646;2023-08-30T08:41:59;11.80;;;7.87;;
5831;SDS011;50943;51.448;7.646;2023-08-30T08:44:26;7.87;;;5.50;;
5831;SDS011;50943;51.448;7.646;2023-08-30T08:46:52;8.10;;;4.97;;
5831;SDS011;50943;51.448;7.646;2023-08-30T08:49:20;6.63;;;5.27;;
5831;SDS011;50943;51.448;7.646;2023-08-30T08:51:47;8.03;;;4.90;;
5831;SDS011;50943;51.448;7.646;2023-08-30T08:54:13;6.87;;;4.43;;
5831;SDS011;50943;51.448;7.646;2023-08-30T08:56:39;4.43;;;3.70;;
5831;SDS011;50943;51.448;7.646;2023-08-30T08:59:06;7.17;;;3.77;;
5831;SDS011;50943;51.448;7.646;2023-08-30T09:01:33;5.83;;;4.00;;
5831;SDS011;50943;51.448;7.646;2023-08-30T09:04:01;7.70;;;4.60;;
5831;SDS011;50943;51.448;7.646;2023-08-30T09:06:31;6.83;;;4.83;;
5831;SDS011;50943;51.448;7.646;2023-08-30T09:08:57;7.17;;;3.73;;
5831;SDS011;50943;51.448;7.646;2023-08-30T09:11:24;5.93;;;3.47;;
5831;SDS011;50943;51.448;7.646;2023-08-30T09:13:50;6.73;;;3.43;;
5831;SDS011;50943;51.448;7.646;2023-08-30T09:16:16;5.83;;;3.87;;
5831;SDS011;50943;51.448;7.646;2023-08-30T09:18:43;6.37;;;3.57;;
5831;SDS011;50943;51.448;7.646;2023-08-30T09:21:09;8.60;;;3.20;;
5831;SDS011;50943;51.448;7.646;2023-08-30T09:23:37;5.80;;;3.27;;
5831;SDS011;50943;51.448;7.646;2023-08-30T09:26:04;5.10;;;3.47;;
5831;SDS011;50943;51.448;7.646;2023-08-30T09:28:30;4.80;;;2.87;;
5831;SDS011;50943;51.448;7.646;2023-08-30T09:30:57;5.90;;;2.90;;
5831;SDS011;50943;51.448;7.646;2023-08-30T09:33:29;3.93;;;3.03;;
5831;SDS011;50943;51.448;7.646;2023-08-30T09:35:56;5.17;;;3.40;;
5831;SDS011;50943;51.448;7.646;2023-08-30T09:38:22;5.50;;;3.60;;
5831;SDS011;50943;51.448;7.646;2023-08-30T09:40:51;6.93;;;3.77;;
5831;SDS011;50943;51.448;7.646;2023-08-30T09:43:18;4.50;;;3.20;;
5831;SDS011;50943;51.448;7.646;2023-08-30T09:45:46;4.97;;;3.13;;
5831;SDS011;50943;51.448;7.646;2023-08-30T09:48:13;4.97;;;2.93;;
5831;SDS011;50943;51.448;7.646;2023-08-30T09:50:39;6.60;;;3.60;;
5831;SDS011;50943;51.448;7.646;2023-08-30T09:53:09;6.60;;;3.43;;
5831;SDS011;50943;51.448;7.646;2023-08-30T09:55:35;6.57;;;2.60;;
5831;SDS011;50943;51.448;7.646;2023-08-30T09:58:03;4.00;;;2.70;;
5831;SDS011;50943;51.448;7.646;2023-08-30T10:00:31;8.17;;;4.10;;
5831;SDS011;50943;51.448;7.646;2023-08-30T10:02:59;7.50;;;3.33;;
5831;SDS011;50943;51.448;7.646;2023-08-30T10:05:26;5.73;;;2.70;;
5831;SDS011;50943;51.448;7.646;2023-08-30T10:07:53;5.60;;;3.07;;
5831;SDS011;50943;51.448;7.646;2023-08-30T10:10:19;4.50;;;2.93;;
5831;SDS011;50943;51.448;7.646;2023-08-30T10:12:46;6.80;;;3.33;;
5831;SDS011;50943;51.448;7.646;2023-08-30T10:15:14;5.33;;;3.43;;
5831;SDS011;50943;51.448;7.646;2023-08-30T10:17:41;6.33;;;3.30;;
5831;SDS011;50943;51.448;7.646;2023-08-30T10:20:07;4.33;;;3.50;;
5831;SDS011;50943;51.448;7.646;2023-08-30T10:22:35;7.30;;;3.70;;
5831;SDS011;50943;51.448;7.646;2023-08-30T10:25:02;4.53;;;3.00;;
5831;SDS011;50943;51.448;7.646;2023-08-30T10:27:29;4.97;;;3.10;;
5831;SDS011;50943;51.448;7.646;2023-08-30T10:29:56;6.03;;;3.50;;
5831;SDS011;50943;51.448;7.646;2023-08-30T10:32:25;5.37;;;3.00;;
5831;SDS011;50943;51.448;7.646;2023-08-30T10:34:52;8.97;;;3.50;;
5831;SDS011;50943;51.448;7.646;2023-08-30T10:37:22;4.47;;;3.10;;
5831;SDS011;50943;51.448;7.646;2023-08-30T10:39:48;4.93;;;3.17;;
5831;SDS011;50943;51.448;7.646;2023-08-30T10:42:15;5.03;;;3.50;;
5831;SDS011;50943;51.448;7.646;2023-08-30T10:44:48;4.83;;;3.03;;
5831;SDS011;50943;51.448;7.646;2023-08-30T10:47:18;7.10;;;3.47;;
5831;SDS011;50943;51.448;7.646;2023-08-30T10:49:47;6.07;;;3.03;;
5831;SDS011;50943;51.448;7.646;2023-08-30T10:52:14;5.60;;;3.50;;
5831;SDS011;50943;51.448;7.646;2023-08-30T10:54:41;5.93;;;3.33;;
5831;SDS011;50943;51.448;7.646;2023-08-30T10:57:12;4.77;;;3.50;;
5831;SDS011;50943;51.448;7.646;2023-08-30T10:59:38;7.53;;;3.53;;
5831;SDS011;50943;51.448;7.646;2023-08-30T11:02:05;5.77;;;3.30;;
5831;SDS011;50943;51.448;7.646;2023-08-30T11:04:32;4.17;;;2.90;;
5831;SDS011;50943;51.448;7.646;2023-08-30T11:06:59;4.80;;;3.30;;
5831;SDS011;50943;51.448;7.646;2023-08-30T11:09:26;5.00;;;3.80;;
5831;SDS011;50943;51.448;7.646;2023-08-30T11:11:53;5.77;;;4.13;;
5831;SDS011;50943;51.448;7.646;2023-08-30T11:14:19;7.43;;;4.40;;
5831;SDS011;50943;51.448;7.646;2023-08-30T11:16:45;6.70;;;5.00;;
5831;SDS011;50943;51.448;7.646;2023-08-30T11:19:12;7.90;;;4.10;;
5831;SDS011;50943;51.448;7.646;2023-08-30T11:21:39;6.47;;;3.40;;
5831;SDS011;50943;51.448;7.646;2023-08-30T11:24:07;5.13;;;3.80;;
5831;SDS011;50943;51.448;7.646;2023-08-30T11:26:34;6.47;;;5.13;;
5831;SDS011;50943;51.448;7.646;2023-08-30T11:29:03;11.13;;;6.30;;
5831;SDS011;50943;51.448;7.646;2023-08-30T11:31:30;9.33;;;5.73;;
5831;SDS011;50943;51.448;7.646;2023-08-30T11:33:56;9.53;;;7.40;;
5831;SDS011;50943;51.448;7.646;2023-08-30T11:36:23;16.57;;;8.40;;
5831;SDS011;50943;51.448;7.646;2023-08-30T11:38:50;11.80;;;9.40;;
5831;SDS011;50943;51.448;7.646;2023-08-30T11:41:18;17.93;;;10.90;;
5831;SDS011;50943;51.448;7.646;2023-08-30T11:43:45;13.73;;;10.50;;
5831;SDS011;50943;51.448;7.646;2023-08-30T11:46:13;16.37;;;9.57;;
5831;SDS011;50943;51.448;7.646;2023-08-30T11:48:40;15.53;;;11.40;;
5831;SDS011;50943;51.448;7.646;2023-08-30T11:51:06;13.67;;;10.27;;
5831;SDS011;50943;51.448;7.646;2023-08-30T11:53:33;16.47;;;11.43;;
5831;SDS011;50943;51.448;7.646;2023-08-30T11:56:00;12.57;;;9.80;;
5831;SDS011;50943;51.448;7.646;2023-08-30T11:58:33;19.60;;;11.50;;
5831;SDS011;50943;51.448;7.646;2023-08-30T12:00:59;11.07;;;9.63;;
5831;SDS011;50943;51.448;7.646;2023-08-30T12:03:26;14.27;;;11.63;;
5831;SDS011;50943;51.448;7.646;2023-08-30T12:05:53;15.40;;;11.30;;
5831;SDS011;50943;51.448;7.646;2023-08-30T12:08:20;15.80;;;12.13;;
5831;SDS011;50943;51.448;7.646;2023-08-30T12:10:46;13.23;;;10.97;;
5831;SDS011;50943;51.448;7.646;2023-08-30T12:13:20;14.70;;;10.40;;
5831;SDS011;50943;51.448;7.646;2023-08-30T12:15:48;19.67;;;9.90;;
5831;SDS011;50943;51.448;7.646;2023-08-30T12:18:14;14.17;;;9.03;;
5831;SDS011;50943;51.448;7.646;2023-08-30T12:20:50;12.20;;;9.00;;
5831;SDS011;50943;51.448;7.646;2023-08-30T12:23:20;13.33;;;9.10;;
5831;SDS011;50943;51.448;7.646;2023-08-30T12:25:56;13.97;;;9.10;;
5831;SDS011;50943;51.448;7.646;2023-08-30T12:28:22;12.90;;;9.87;;
5831;SDS011;50943;51.448;7.646;2023-08-30T12:30:50;16.03;;;9.53;;
5831;SDS011;50943;51.448;7.646;2023-08-30T12:33:17;15.80;;;10.73;;
5831;SDS011;50943;51.448;7.646;2023-08-30T12:35:43;16.80;;;11.77;;
5831;SDS011;50943;51.448;7.646;2023-08-30T12:38:10;16.17;;;11.17;;
5831;SDS011;50943;51.448;7.646;2023-08-30T12:40:36;16.10;;;12.60;;
5831;SDS011;50943;51.448;7.646;2023-08-30T12:43:03;18.07;;;11.47;;
5831;SDS011;50943;51.448;7.646;2023-08-30T12:45:29;20.90;;;12.27;;
5831;SDS011;50943;51.448;7.646;2023-08-30T12:47:57;17.43;;;13.00;;
5831;SDS011;50943;51.448;7.646;2023-08-30T12:50:24;17.53;;;12.53;;
5831;SDS011;50943;51.448;7.646;2023-08-30T12:52:50;18.60;;;12.27;;
5831;SDS011;50943;51.448;7.646;2023-08-30T12:55:19;13.77;;;10.83;;
5831;SDS011;50943;51.448;7.646;2023-08-30T12:57:46;18.50;;;11.90;;
5831;SDS011;50943;51.448;7.646;2023-08-30T13:00:12;17.63;;;11.37;;
5831;SDS011;50943;51.448;7.646;2023-08-30T13:02:39;17.70;;;10.00;;
5831;SDS011;50943;51.448;7.646;2023-08-30T13:05:07;12.70;;;9.90;;
5831;SDS011;50943;51.448;7.646;2023-08-30T13:07:34;13.43;;;9.43;;
5831;SDS011;50943;51.448;7.646;2023-08-30T13:10:00;17.37;;;10.23;;
5831;SDS011;50943;51.448;7.646;2023-08-30T13:12:26;10.43;;;8.20;;
5831;SDS011;50943;51.448;7.646;2023-08-30T13:14:53;12.83;;;8.13;;
5831;SDS011;50943;51.448;7.646;2023-08-30T13:17:19;11.63;;;7.80;;
5831;SDS011;50943;51.448;7.646;2023-08-30T13:19:45;13.80;;;7.33;;
5831;SDS011;50943;51.448;7.646;2023-08-30T13:22:13;7.80;;;6.50;;
5831;SDS011;50943;51.448;7.646;2023-08-30T13:24:40;8.83;;;6.33;;
5831;SDS011;50943;51.448;7.646;2023-08-30T13:27:06;8.07;;;6.53;;
5831;SDS011;50943;51.448;7.646;2023-08-30T13:29:32;7.80;;;5.40;;
5831;SDS011;50943;51.448;7.646;2023-08-30T13:31:59;6.73;;;4.67;;
5831;SDS011;50943;51.448;7.646;2023-08-30T13:34:25;7.40;;;4.10;;
5831;SDS011;50943;51.448;7.646;2023-08-30T13:36:51;5.37;;;3.70;;
5831;SDS011;50943;51.448;7.646;2023-08-30T13:39:19;5.80;;;3.60;;
5831;SDS011;50943;51.448;7.646;2023-08-30T13:41:45;4.23;;;3.67;;
5831;SDS011;50943;51.448;7.646;2023-08-30T13:44:13;5.30;;;3.03;;
5831;SDS011;50943;51.448;7.646;2023-08-30T13:46:40;4.67;;;2.97;;
5831;SDS011;50943;51.448;7.646;2023-08-30T13:49:06;4.37;;;3.00;;
5831;SDS011;50943;51.448;7.646;2023-08-30T13:51:33;3.50;;;2.70;;
5831;SDS011;50943;51.448;7.646;2023-08-30T13:54:00;6.80;;;2.90;;
5831;SDS011;50943;51.448;7.646;2023-08-30T13:56:28;4.37;;;2.70;;
5831;SDS011;50943;51.448;7.646;2023-08-30T13:58:55;3.03;;;2.33;;
5831;SDS011;50943;51.448;7.646;2023-08-30T14:01:22;4.37;;;3.37;;
5831;SDS011;50943;51.448;7.646;2023-08-30T14:03:48;4.47;;;2.60;;
5831;SDS011;50943;51.448;7.646;2023-08-30T14:06:15;4.53;;;3.00;;
5831;SDS011;50943;51.448;7.646;2023-08-30T14:08:41;4.77;;;3.73;;
5831;SDS011;50943;51.448;7.646;2023-08-30T14:11:08;5.33;;;3.90;;
5831;SDS011;50943;51.448;7.646;2023-08-30T14:13:36;5.10;;;3.80;;
5831;SDS011;50943;51.448;7.646;2023-08-30T14:16:02;4.90;;;3.90;;
5831;SDS011;50943;51.448;7.646;2023-08-30T14:18:29;9.33;;;4.20;;
5831;SDS011;50943;51.448;7.646;2023-08-30T14:20:56;4.90;;;3.77;;
5831;SDS011;50943;51.448;7.646;2023-08-30T14:23:25;4.73;;;3.73;;
5831;SDS011;50943;51.448;7.646;2023-08-30T14:25:55;7.77;;;4.67;;
5831;SDS011;50943;51.448;7.646;2023-08-30T14:28:21;5.80;;;4.00;;
5831;SDS011;50943;51.448;7.646;2023-08-30T14:30:49;4.40;;;3.63;;
5831;SDS011;50943;51.448;7.646;2023-08-30T14:33:15;4.60;;;3.30;;
5831;SDS011;50943;51.448;7.646;2023-08-30T14:35:42;3.60;;;2.93;;
5831;SDS011;50943;51.448;7.646;2023-08-30T14:38:08;5.23;;;3.37;;
5831;SDS011;50943;51.448;7.646;2023-08-30T14:40:34;5.03;;;2.80;;
5831;SDS011;50943;51.448;7.646;2023-08-30T14:43:01;4.63;;;3.70;;
5831;SDS011;50943;51.448;7.646;2023-08-30T14:45:28;7.03;;;4.90;;
5831;SDS011;50943;51.448;7.646;2023-08-30T14:47:56;9.13;;;4.80;;